createdAt,value
2019-05-13T00:00:20.660Z,0.20
2019-05-13T00:01:20.639Z,0.20
2019-05-13T00:02:20.636Z,0.20
2019-05-13T00:03:20.618Z,0.20
2019-05-13T00:04:20.615Z,0.30
2019-05-13T00:05:20.614Z,0.40
2019-05-13T00:06:20.592Z,0.30
2019-05-13T00:07:20.574Z,0.20
2019-05-13T00:08:21.923Z,0.40
2019-05-13T00:09:20.556Z,0.30
2019-05-13T00:10:20.554Z,0.30
2019-05-13T00:11:20.550Z,0.30
2019-05-13T00:12:20.561Z,0.20
2019-05-13T00:13:20.519Z,0.30
2019-05-13T00:14:20.499Z,0.30
2019-05-13T00:15:20.494Z,0.30
2019-05-13T00:16:20.493Z,0.30
2019-05-13T00:17:20.480Z,0.40
2019-05-13T00:18:20.482Z,0.30
2019-05-13T00:19:20.464Z,0.30
2019-05-13T00:20:20.435Z,0.20
2019-05-13T00:21:23.127Z,0.30
2019-05-13T00:22:20.414Z,0.30
2019-05-13T00:23:20.406Z,0.30
2019-05-13T00:24:33.677Z,0.30
2019-05-13T00:25:20.385Z,0.30
2019-05-13T00:26:20.374Z,0.30
2019-05-13T00:27:20.364Z,0.30
2019-05-13T00:28:20.370Z,0.30
2019-05-13T00:29:20.339Z,0.30
2019-05-13T00:30:20.329Z,0.30
2019-05-13T00:31:20.319Z,0.20
2019-05-13T00:32:20.314Z,0.30
2019-05-13T00:33:20.296Z,0.30
2019-05-13T00:34:20.331Z,0.30
2019-05-13T00:35:20.281Z,0.20
2019-05-13T00:36:20.267Z,0.40
2019-05-13T00:37:20.254Z,0.30
2019-05-13T00:38:20.246Z,0.30
2019-05-13T00:39:20.241Z,0.30
2019-05-13T00:40:20.265Z,0.30
2019-05-13T00:41:20.210Z,0.30
2019-05-13T00:42:20.205Z,0.30
2019-05-13T00:43:20.198Z,0.30
2019-05-13T00:44:20.185Z,0.30
2019-05-13T00:45:20.176Z,0.20
2019-05-13T00:46:20.194Z,0.30
2019-05-13T00:47:20.148Z,0.30
2019-05-13T00:48:20.149Z,0.20
2019-05-13T00:49:20.125Z,0.30
2019-05-13T00:50:20.122Z,0.30
2019-05-13T00:51:20.105Z,0.30
2019-05-13T00:52:20.112Z,0.30
2019-05-13T00:53:20.085Z,0.30
2019-05-13T00:54:20.074Z,0.30
2019-05-13T00:55:30.823Z,0.30
2019-05-13T00:56:20.094Z,0.20
2019-05-13T00:57:20.051Z,0.30
2019-05-13T00:58:20.035Z,0.30
2019-05-13T00:59:20.023Z,0.30
2019-05-13T01:00:20.012Z,0.30
2019-05-13T01:01:20.002Z,0.30
2019-05-13T01:02:20.000Z,0.30
2019-05-13T01:03:19.984Z,0.30
2019-05-13T01:04:19.976Z,0.20
2019-05-13T01:05:19.966Z,0.30
2019-05-13T01:06:19.947Z,0.30
2019-05-13T01:07:26.032Z,0.30
2019-05-13T01:08:20.925Z,0.20
2019-05-13T01:09:19.915Z,0.20
2019-05-13T01:10:19.909Z,0.20
2019-05-13T01:11:19.898Z,0.20
2019-05-13T01:12:19.886Z,0.30
2019-05-13T01:13:19.884Z,0.30
2019-05-13T01:14:19.863Z,0.20
2019-05-13T01:15:19.851Z,0.30
2019-05-13T01:16:19.847Z,0.30
2019-05-13T01:17:19.830Z,0.30
2019-05-13T01:18:19.863Z,0.30
2019-05-13T01:19:19.816Z,0.30
2019-05-13T01:20:19.799Z,0.30
2019-05-13T01:21:19.791Z,0.20
2019-05-13T01:22:19.777Z,0.30
2019-05-13T01:23:19.770Z,0.30
2019-05-13T01:24:19.765Z,0.20
2019-05-13T01:25:19.743Z,0.30
2019-05-13T01:26:30.041Z,0.30
2019-05-13T01:27:20.620Z,0.30
2019-05-13T01:28:19.714Z,0.30
2019-05-13T01:29:19.713Z,0.20
2019-05-13T01:30:19.734Z,0.30
2019-05-13T01:31:19.685Z,0.30
2019-05-13T01:32:19.674Z,0.30
2019-05-13T01:33:19.658Z,0.20
2019-05-13T01:34:19.651Z,0.20
2019-05-13T01:35:19.647Z,0.20
2019-05-13T01:36:19.643Z,0.20
2019-05-13T01:37:19.617Z,0.30
2019-05-13T01:38:19.609Z,0.30
2019-05-13T01:39:19.597Z,0.20
2019-05-13T01:40:19.599Z,0.20
2019-05-13T01:41:19.578Z,0.20
2019-05-13T01:42:19.572Z,0.30
2019-05-13T01:43:19.555Z,0.30
2019-05-13T01:44:19.542Z,0.20
2019-05-13T01:45:19.541Z,0.20
2019-05-13T01:46:19.527Z,0.30
2019-05-13T01:47:19.519Z,0.30
2019-05-13T01:48:19.503Z,0.20
2019-05-13T01:49:19.493Z,0.20
2019-05-13T01:50:19.567Z,0.20
2019-05-13T01:51:19.470Z,0.30
2019-05-13T01:52:19.455Z,0.30
2019-05-13T01:53:19.454Z,0.30
2019-05-13T01:54:19.436Z,0.30
2019-05-13T01:55:19.423Z,0.30
2019-05-13T01:56:19.451Z,0.20
2019-05-13T01:57:29.252Z,0.20
2019-05-13T01:58:19.391Z,0.30
2019-05-13T01:59:19.382Z,0.30
2019-05-13T02:00:19.377Z,0.20
2019-05-13T02:01:19.360Z,0.30
2019-05-13T02:02:19.388Z,0.30
2019-05-13T02:03:19.337Z,0.30
2019-05-13T02:04:19.349Z,0.30
2019-05-13T02:05:26.313Z,0.20
2019-05-13T02:06:19.307Z,0.30
2019-05-13T02:07:19.304Z,0.20
2019-05-13T02:08:19.313Z,0.20
2019-05-13T02:09:19.276Z,0.20
2019-05-13T02:10:19.268Z,0.30
2019-05-13T02:11:19.254Z,0.30
2019-05-13T02:12:19.242Z,0.30
2019-05-13T02:13:19.233Z,0.30
2019-05-13T02:14:19.228Z,0.30
2019-05-13T02:15:19.210Z,0.20
2019-05-13T02:16:19.199Z,0.20
2019-05-13T02:17:19.224Z,0.30
2019-05-13T02:18:19.178Z,0.20
2019-05-13T02:19:19.171Z,0.30
2019-05-13T02:20:19.165Z,0.20
2019-05-13T02:21:19.153Z,0.20
2019-05-13T02:22:19.139Z,0.30
2019-05-13T02:23:19.162Z,0.30
2019-05-13T02:24:19.121Z,0.20
2019-05-13T02:25:19.111Z,0.30
2019-05-13T02:26:19.108Z,0.20
2019-05-13T02:27:19.088Z,0.20
2019-05-13T02:28:19.073Z,0.20
2019-05-13T02:29:19.084Z,0.30
2019-05-13T02:30:19.051Z,0.20
2019-05-13T02:31:31.989Z,0.30
2019-05-13T02:32:23.275Z,0.30
2019-05-13T02:33:19.022Z,0.30
2019-05-13T02:34:19.018Z,0.30
2019-05-13T02:35:18.997Z,0.30
2019-05-13T02:36:32.643Z,0.20
2019-05-13T02:37:18.977Z,0.20
2019-05-13T02:38:24.553Z,0.20
2019-05-13T02:39:22.282Z,0.20
2019-05-13T02:40:22.384Z,0.30
2019-05-13T02:41:22.550Z,0.20
2019-05-13T02:42:22.602Z,0.20
2019-05-13T02:43:22.713Z,0.20
2019-05-13T02:44:18.906Z,0.20
2019-05-13T02:45:18.945Z,0.30
2019-05-13T02:46:18.881Z,0.20
2019-05-13T02:47:18.881Z,0.20
2019-05-13T02:48:18.861Z,0.20
2019-05-13T02:49:18.849Z,0.30
2019-05-13T02:50:18.838Z,0.40
2019-05-13T02:51:18.865Z,0.30
2019-05-13T02:52:18.818Z,0.40
2019-05-13T02:53:18.811Z,0.20
2019-05-13T02:54:18.798Z,0.20
2019-05-13T02:55:18.792Z,0.20
2019-05-13T02:56:18.858Z,0.30
2019-05-13T02:57:18.771Z,0.20
2019-05-13T02:58:18.758Z,0.30
2019-05-13T02:59:18.753Z,0.20
2019-05-13T03:00:18.737Z,0.30
2019-05-13T03:01:18.717Z,0.30
2019-05-13T03:02:18.754Z,0.30
2019-05-13T03:03:18.703Z,0.30
2019-05-13T03:04:18.699Z,0.30
2019-05-13T03:05:18.679Z,0.30
2019-05-13T03:06:18.667Z,0.30
2019-05-13T03:07:33.094Z,0.20
2019-05-13T03:08:34.175Z,0.20
2019-05-13T03:09:22.715Z,0.30
2019-05-13T03:10:18.623Z,0.30
2019-05-13T03:11:18.614Z,0.20
2019-05-13T03:12:18.628Z,0.30
2019-05-13T03:13:18.591Z,0.20
2019-05-13T03:14:18.584Z,0.20
2019-05-13T03:15:18.581Z,0.20
2019-05-13T03:16:18.569Z,0.20
2019-05-13T03:17:18.554Z,0.30
2019-05-13T03:18:18.568Z,0.30
2019-05-13T03:19:18.532Z,0.30
2019-05-13T03:20:18.519Z,0.30
2019-05-13T03:21:18.510Z,0.30
2019-05-13T03:22:18.501Z,0.30
2019-05-13T03:23:18.495Z,0.20
2019-05-13T03:24:18.484Z,0.20
2019-05-13T03:25:18.465Z,0.30
2019-05-13T03:26:18.453Z,0.20
2019-05-13T03:27:20.460Z,0.20
2019-05-13T03:28:22.285Z,0.30
2019-05-13T03:29:18.430Z,0.30
2019-05-13T03:30:18.418Z,0.40
2019-05-13T03:31:18.411Z,0.30
2019-05-13T03:32:18.390Z,0.30
2019-05-13T03:33:20.105Z,0.30
2019-05-13T03:34:25.495Z,0.40
2019-05-13T03:35:25.798Z,0.30
2019-05-13T03:36:25.148Z,0.30
2019-05-13T03:37:25.361Z,0.20
2019-05-13T03:39:33.219Z,0.20
2019-05-13T03:40:32.971Z,0.20
2019-05-13T03:41:32.974Z,0.30
2019-05-13T03:42:33.458Z,0.20
2019-05-13T03:43:32.603Z,0.20
2019-05-13T03:44:32.692Z,0.30
2019-05-13T03:45:32.818Z,0.30
2019-05-13T03:46:42.313Z,0.30
2019-05-13T03:47:32.854Z,0.30
2019-05-13T03:48:33.368Z,0.30
2019-05-13T03:49:32.818Z,0.30
2019-05-13T03:50:34.695Z,0.20
2019-05-13T03:51:32.734Z,0.40
2019-05-13T03:52:33.627Z,0.30
2019-05-13T03:53:32.680Z,0.30
2019-05-13T03:54:32.727Z,0.40
2019-05-13T03:55:32.879Z,0.30
2019-05-13T03:56:32.815Z,0.20
2019-05-13T03:57:33.720Z,0.20
2019-05-13T03:58:32.528Z,0.30
2019-05-13T03:59:33.273Z,0.20
2019-05-13T04:00:32.381Z,0.30
2019-05-13T04:01:32.698Z,0.20
2019-05-13T04:02:32.642Z,0.20
2019-05-13T04:03:33.203Z,0.30
2019-05-13T04:04:32.627Z,0.30
2019-05-13T04:05:33.467Z,0.40
2019-05-13T04:06:32.525Z,0.20
2019-05-13T04:07:32.703Z,0.30
2019-05-13T04:08:32.695Z,0.30
2019-05-13T04:09:36.148Z,0.30
2019-05-13T04:10:33.566Z,0.30
2019-05-13T04:11:33.034Z,0.20
2019-05-13T04:12:33.313Z,0.20
2019-05-13T04:13:33.524Z,0.30
2019-05-13T04:14:33.379Z,0.30
2019-05-13T04:15:32.029Z,0.30
2019-05-13T04:16:32.361Z,0.20
2019-05-13T04:17:42.843Z,0.30
2019-05-13T04:18:32.070Z,0.30
2019-05-13T04:19:33.598Z,0.30
2019-05-13T04:20:33.218Z,0.20
2019-05-13T04:21:33.830Z,0.30
2019-05-13T04:22:33.321Z,0.20
2019-05-13T04:23:32.450Z,0.20
2019-05-13T04:24:33.367Z,0.20
2019-05-13T04:25:32.356Z,0.20
2019-05-13T04:26:32.421Z,0.20
2019-05-13T04:27:32.684Z,0.20
2019-05-13T04:28:33.011Z,0.20
2019-05-13T04:29:32.926Z,0.20
2019-05-13T04:30:33.016Z,0.30
2019-05-13T04:31:33.362Z,0.20
2019-05-13T04:32:33.454Z,0.20
2019-05-13T04:33:33.379Z,0.30
2019-05-13T04:34:33.647Z,0.20
2019-05-13T04:35:33.283Z,0.20
2019-05-13T04:36:32.081Z,0.20
2019-05-13T04:37:32.863Z,0.40
2019-05-13T04:38:33.130Z,0.20
2019-05-13T04:39:41.734Z,0.40
2019-05-13T04:40:33.338Z,0.20
2019-05-13T04:41:33.175Z,0.20
2019-05-13T04:42:33.321Z,0.20
2019-05-13T04:43:34.572Z,0.20
2019-05-13T04:44:32.313Z,0.40
2019-05-13T04:45:33.074Z,0.20
2019-05-13T04:46:32.780Z,0.20
2019-05-13T04:47:33.167Z,0.20
2019-05-13T04:48:44.221Z,0.20
2019-05-13T04:49:32.514Z,0.20
2019-05-13T04:50:32.921Z,0.20
2019-05-13T04:51:32.860Z,0.30
2019-05-13T04:52:32.981Z,0.20
2019-05-13T04:53:33.406Z,0.20
2019-05-13T04:54:33.083Z,0.20
2019-05-13T04:55:33.282Z,0.30
2019-05-13T04:56:32.937Z,0.20
2019-05-13T04:57:33.172Z,0.30
2019-05-13T04:58:32.190Z,0.30
2019-05-13T04:59:34.074Z,0.20
2019-05-13T05:00:32.417Z,0.40
2019-05-13T05:01:32.469Z,0.20
2019-05-13T05:02:39.975Z,0.30
2019-05-13T05:03:35.183Z,0.20
2019-05-13T05:04:34.832Z,0.30
2019-05-13T05:05:32.596Z,0.30
2019-05-13T05:06:33.158Z,0.30
2019-05-13T05:07:32.662Z,0.30
2019-05-13T05:08:32.861Z,0.40
2019-05-13T05:09:32.948Z,0.20
2019-05-13T05:10:38.450Z,0.20
2019-05-13T05:11:32.408Z,0.30
2019-05-13T05:12:32.018Z,0.30
2019-05-13T05:13:32.338Z,0.20
2019-05-13T05:14:32.494Z,0.30
2019-05-13T05:15:32.411Z,0.30
2019-05-13T05:16:32.559Z,0.30
2019-05-13T05:17:32.813Z,0.30
2019-05-13T05:18:32.604Z,0.30
2019-05-13T05:19:44.983Z,0.20
2019-05-13T05:20:32.253Z,0.30
2019-05-13T05:22:55.210Z,0.50
2019-05-13T05:23:55.198Z,0.30
2019-05-13T05:24:55.185Z,0.30
2019-05-13T05:25:55.212Z,0.30
2019-05-13T05:26:55.160Z,0.30
2019-05-13T05:28:02.646Z,0.30
2019-05-13T05:28:55.138Z,0.30
2019-05-13T05:29:55.131Z,0.30
2019-05-13T05:30:55.117Z,0.30
2019-05-13T05:31:55.118Z,0.40
2019-05-13T05:32:55.101Z,0.30
2019-05-13T05:33:55.090Z,0.30
2019-05-13T05:34:55.076Z,0.20
2019-05-13T05:35:55.085Z,0.30
2019-05-13T05:36:55.091Z,0.30
2019-05-13T05:37:55.049Z,0.40
2019-05-13T05:38:55.029Z,0.30
2019-05-13T05:39:55.023Z,0.40
2019-05-13T05:40:55.007Z,0.30
2019-05-13T05:41:54.999Z,0.40
2019-05-13T05:42:55.033Z,0.30
2019-05-13T05:43:54.982Z,0.40
2019-05-13T05:44:54.964Z,0.30
2019-05-13T05:45:54.961Z,0.30
2019-05-13T05:46:54.950Z,0.30
2019-05-13T05:47:54.938Z,0.30
2019-05-13T05:48:54.930Z,0.30
2019-05-13T05:49:54.917Z,0.20
2019-05-13T05:50:54.907Z,0.30
2019-05-13T05:51:54.891Z,0.30
2019-05-13T05:52:54.878Z,0.30
2019-05-13T05:53:54.891Z,0.20
2019-05-13T05:54:54.870Z,0.30
2019-05-13T05:55:55.059Z,0.30
2019-05-13T05:56:54.835Z,0.40
2019-05-13T05:57:54.828Z,0.30
2019-05-13T05:59:07.113Z,0.40
2019-05-13T05:59:54.810Z,0.40
2019-05-13T06:00:54.833Z,0.30
2019-05-13T06:01:54.785Z,0.30
2019-05-13T06:02:54.772Z,0.30
2019-05-13T06:03:54.765Z,0.20
2019-05-13T06:04:54.756Z,0.20
2019-05-13T06:05:54.746Z,0.20
2019-05-13T06:06:54.735Z,0.20
2019-05-13T06:07:54.718Z,0.20
2019-05-13T06:08:54.711Z,0.20
2019-05-13T06:09:54.711Z,0.30
2019-05-13T06:10:54.684Z,0.30
2019-05-13T06:11:54.676Z,0.30
2019-05-13T06:12:54.663Z,0.30
2019-05-13T06:13:54.840Z,0.30
2019-05-13T06:14:54.648Z,0.20
2019-05-13T06:15:54.647Z,0.30
2019-05-13T06:16:54.618Z,0.30
2019-05-13T06:17:54.614Z,0.20
2019-05-13T06:18:54.599Z,0.30
2019-05-13T06:19:54.594Z,0.20
2019-05-13T06:20:54.576Z,0.20
2019-05-13T06:21:54.608Z,0.30
2019-05-13T06:22:54.558Z,0.30
2019-05-13T06:23:54.541Z,0.20
2019-05-13T06:24:54.537Z,0.30
2019-05-13T06:25:54.525Z,0.20
2019-05-13T06:26:54.513Z,0.30
2019-05-13T06:27:54.512Z,0.30
2019-05-13T06:28:54.490Z,0.30
2019-05-13T06:30:06.156Z,0.20
2019-05-13T06:30:54.465Z,0.20
2019-05-13T06:31:54.496Z,0.20
2019-05-13T06:32:54.444Z,0.40
2019-05-13T06:33:54.441Z,0.30
2019-05-13T06:34:54.430Z,0.40
2019-05-13T06:35:54.420Z,0.20
2019-05-13T06:36:54.400Z,0.30
2019-05-13T06:37:54.412Z,0.30
2019-05-13T06:38:54.381Z,0.30
2019-05-13T06:39:54.371Z,0.30
2019-05-13T06:41:03.279Z,0.20
2019-05-13T06:41:55.346Z,0.20
2019-05-13T06:42:54.358Z,0.30
2019-05-13T06:43:54.329Z,0.20
2019-05-13T06:44:54.318Z,0.20
2019-05-13T06:45:54.309Z,0.20
2019-05-13T06:46:54.292Z,0.10
2019-05-13T06:47:54.289Z,0.20
2019-05-13T06:48:54.289Z,0.20
2019-05-13T06:49:54.261Z,0.20
2019-05-13T06:50:54.257Z,0.30
2019-05-13T06:51:54.277Z,0.10
2019-05-13T06:52:54.285Z,0.20
2019-05-13T06:53:54.223Z,0.30
2019-05-13T06:54:54.229Z,0.30
2019-05-13T06:55:54.197Z,0.30
2019-05-13T06:56:54.192Z,0.20
2019-05-13T06:57:54.173Z,0.20
2019-05-13T06:58:54.166Z,0.30
2019-05-13T06:59:54.164Z,0.30
2019-05-13T07:01:04.641Z,0.20
2019-05-13T07:01:54.135Z,0.20
2019-05-13T07:02:54.123Z,0.20
2019-05-13T07:03:54.115Z,0.20
2019-05-13T07:04:54.098Z,0.20
2019-05-13T07:05:54.105Z,0.20
2019-05-13T07:07:08.769Z,0.30
2019-05-13T07:07:55.065Z,0.30
2019-05-13T07:08:54.060Z,0.20
2019-05-13T07:09:54.056Z,0.20
2019-05-13T07:10:54.075Z,0.20
2019-05-13T07:11:56.882Z,0.20
2019-05-13T07:12:54.020Z,0.20
2019-05-13T07:13:54.001Z,0.20
2019-05-13T07:14:53.998Z,0.20
2019-05-13T07:15:54.515Z,0.20
2019-05-13T07:16:53.982Z,0.30
2019-05-13T07:17:53.970Z,0.20
2019-05-13T07:18:53.952Z,0.20
2019-05-13T07:19:53.943Z,0.30
2019-05-13T07:20:53.931Z,0.20
2019-05-13T07:21:53.970Z,0.20
2019-05-13T07:22:53.906Z,0.30
2019-05-13T07:23:54.919Z,0.20
2019-05-13T07:24:53.883Z,0.20
2019-05-13T07:25:53.876Z,0.20
2019-05-13T07:26:53.863Z,0.30
2019-05-13T07:27:53.899Z,0.20
2019-05-13T07:28:53.845Z,0.20
2019-05-13T07:29:55.748Z,0.30
2019-05-13T07:30:53.827Z,0.30
2019-05-13T07:32:04.338Z,0.30
2019-05-13T07:32:53.799Z,0.30
2019-05-13T07:33:53.810Z,0.30
2019-05-13T07:34:53.783Z,0.30
2019-05-13T07:35:58.018Z,0.30
2019-05-13T07:36:53.756Z,0.20
2019-05-13T07:37:53.749Z,0.20
2019-05-13T07:38:53.781Z,0.30
2019-05-13T07:39:53.730Z,0.20
2019-05-13T07:40:53.721Z,0.30
2019-05-13T07:41:53.707Z,0.20
2019-05-13T07:42:53.690Z,0.20
2019-05-13T07:43:53.682Z,0.20
2019-05-13T07:44:53.688Z,0.20
2019-05-13T07:45:53.669Z,0.20
2019-05-13T07:46:53.652Z,0.30
2019-05-13T07:47:53.642Z,0.20
2019-05-13T07:48:53.640Z,0.20
2019-05-13T07:49:53.620Z,0.30
2019-05-13T07:51:00.321Z,0.20
2019-05-13T07:51:54.638Z,0.20
2019-05-13T07:52:53.591Z,0.20
2019-05-13T07:53:53.622Z,0.30
2019-05-13T07:54:53.573Z,0.20
2019-05-13T07:55:53.551Z,0.30
2019-05-13T07:56:53.550Z,0.30
2019-05-13T07:57:53.537Z,0.20
2019-05-13T07:58:53.526Z,0.30
2019-05-13T07:59:53.529Z,0.30
2019-05-13T08:00:53.549Z,0.40
2019-05-13T08:01:53.529Z,0.30
2019-05-13T08:03:03.278Z,0.30
2019-05-13T08:03:53.467Z,0.40
2019-05-13T08:04:53.478Z,0.20
2019-05-13T08:05:53.462Z,0.20
2019-05-13T08:06:53.441Z,0.20
2019-05-13T08:07:53.423Z,0.30
2019-05-13T08:08:53.420Z,0.20
2019-05-13T08:09:56.807Z,0.30
2019-05-13T08:10:54.398Z,0.30
2019-05-13T08:12:05.513Z,0.20
2019-05-13T08:12:54.376Z,0.20
2019-05-13T08:13:53.361Z,0.30
2019-05-13T08:14:53.364Z,0.20
2019-05-13T08:15:54.728Z,0.30
2019-05-13T08:16:53.329Z,0.30
2019-05-13T08:17:53.318Z,0.30
2019-05-13T08:18:53.306Z,0.30
2019-05-13T08:19:53.298Z,0.20
2019-05-13T08:20:53.342Z,0.30
2019-05-13T08:21:53.282Z,0.20
2019-05-13T08:22:53.265Z,0.30
2019-05-13T08:23:53.257Z,0.20
2019-05-13T08:24:54.444Z,0.40
2019-05-13T08:25:53.239Z,0.30
2019-05-13T08:26:53.445Z,0.40
2019-05-13T08:27:53.248Z,0.30
2019-05-13T08:29:01.244Z,0.30
2019-05-13T08:29:54.196Z,0.30
2019-05-13T08:30:53.182Z,0.20
2019-05-13T08:31:53.175Z,0.40
2019-05-13T08:32:53.170Z,0.30
2019-05-13T08:34:03.072Z,0.20
2019-05-13T08:35:02.003Z,0.30
2019-05-13T08:35:58.713Z,0.20
2019-05-13T08:36:53.127Z,0.30
2019-05-13T08:37:53.115Z,0.50
2019-05-13T08:38:53.098Z,0.20
2019-05-13T08:39:53.087Z,0.30
2019-05-13T08:40:53.077Z,0.20
2019-05-13T08:41:53.066Z,0.30
2019-05-13T08:42:53.092Z,0.30
2019-05-13T08:43:53.046Z,0.20
2019-05-13T08:44:53.027Z,0.30
2019-05-13T08:45:55.653Z,0.30
2019-05-13T08:46:53.015Z,0.20
2019-05-13T08:47:52.996Z,0.30
2019-05-13T08:48:53.031Z,0.20
2019-05-13T08:49:52.979Z,0.20
2019-05-13T08:50:52.969Z,0.30
2019-05-13T08:51:52.955Z,0.20
2019-05-13T08:52:52.941Z,0.30
2019-05-13T08:53:52.930Z,0.20
2019-05-13T08:54:52.935Z,0.30
2019-05-13T08:55:52.911Z,0.30
2019-05-13T08:56:52.899Z,0.30
2019-05-13T08:57:55.153Z,0.20
2019-05-13T08:58:52.883Z,0.20
2019-05-13T08:59:52.882Z,0.30
2019-05-13T09:00:53.329Z,0.20
2019-05-13T09:01:52.846Z,0.30
2019-05-13T09:02:52.848Z,0.30
2019-05-13T09:03:52.826Z,0.30
2019-05-13T09:05:02.957Z,0.30
2019-05-13T09:05:52.841Z,0.30
2019-05-13T09:06:52.796Z,0.20
2019-05-13T09:07:52.785Z,0.40
2019-05-13T09:08:54.146Z,0.30
2019-05-13T09:09:52.772Z,0.30
2019-05-13T09:10:56.448Z,0.30
2019-05-13T09:11:52.747Z,0.30
2019-05-13T09:12:52.730Z,0.30
2019-05-13T09:13:52.728Z,0.30
2019-05-13T09:14:52.711Z,0.40
2019-05-13T09:15:52.700Z,0.30
2019-05-13T09:16:52.783Z,0.30
2019-05-13T09:17:52.679Z,0.20
2019-05-13T09:18:57.104Z,0.20
2019-05-13T09:19:52.654Z,0.20
2019-05-13T09:20:52.646Z,0.20
2019-05-13T09:21:52.751Z,0.20
2019-05-13T09:22:52.631Z,0.20
2019-05-13T09:23:52.614Z,0.30
2019-05-13T09:24:53.146Z,0.10
2019-05-13T09:25:52.587Z,0.30
2019-05-13T09:26:52.888Z,0.30
2019-05-13T09:27:52.575Z,0.20
2019-05-13T09:28:52.562Z,0.20
2019-05-13T09:29:52.561Z,0.20
2019-05-13T09:30:53.316Z,0.20
2019-05-13T09:31:52.536Z,0.20
2019-05-13T09:32:52.519Z,0.30
2019-05-13T09:33:52.501Z,0.20
2019-05-13T09:34:52.730Z,0.20
2019-05-13T09:36:04.104Z,0.20
2019-05-13T09:36:52.468Z,0.20
2019-05-13T09:37:52.463Z,0.20
2019-05-13T09:38:52.740Z,0.10
2019-05-13T09:39:52.451Z,0.20
2019-05-13T09:40:53.158Z,0.20
2019-05-13T09:41:52.446Z,0.30
2019-05-13T09:42:55.260Z,0.20
2019-05-13T09:43:52.392Z,0.30
2019-05-13T09:44:52.724Z,0.20
2019-05-13T09:45:52.681Z,0.20
2019-05-13T09:46:52.405Z,0.20
2019-05-13T09:47:52.636Z,0.30
2019-05-13T09:48:52.348Z,0.20
2019-05-13T09:49:54.566Z,0.40
2019-05-13T09:50:52.321Z,0.40
2019-05-13T09:51:52.436Z,0.90
2019-05-13T09:52:52.306Z,0.50
2019-05-13T09:53:52.291Z,0.80
2019-05-13T09:54:52.547Z,0.80
2019-05-13T09:55:59.251Z,0.70
2019-05-13T09:56:52.254Z,0.90
2019-05-13T09:57:52.624Z,0.80
2019-05-13T09:58:52.239Z,0.80
2019-05-13T09:59:52.543Z,1.00
2019-05-13T10:00:53.036Z,0.80
2019-05-13T10:01:52.201Z,0.60
2019-05-13T10:02:52.217Z,0.60
2019-05-13T10:03:57.697Z,0.60
2019-05-13T10:04:53.165Z,0.30
2019-05-13T10:05:52.155Z,0.60
2019-05-13T10:06:52.144Z,0.50
2019-05-13T10:07:52.138Z,0.40
2019-05-13T10:08:52.798Z,0.30
2019-05-13T10:09:52.286Z,0.50
2019-05-13T10:10:52.902Z,0.50
2019-05-13T10:11:52.096Z,0.40
2019-05-13T10:13:08.011Z,0.40
2019-05-13T10:13:53.071Z,0.40
2019-05-13T10:14:52.071Z,0.20
2019-05-13T10:15:52.047Z,0.60
2019-05-13T10:16:52.039Z,0.50
2019-05-13T10:17:52.707Z,0.40
2019-05-13T10:18:52.634Z,0.30
2019-05-13T10:19:52.365Z,0.40
2019-05-13T10:20:53.799Z,0.40
2019-05-13T10:21:52.989Z,0.20
2019-05-13T10:22:52.533Z,0.40
2019-05-13T10:23:51.964Z,0.10
2019-05-13T10:24:51.954Z,0.20
2019-05-13T10:25:52.282Z,0.20
2019-05-13T10:27:04.261Z,0.40
2019-05-13T10:27:51.918Z,0.30
2019-05-13T10:28:57.704Z,0.40
2019-05-13T10:29:52.251Z,0.20
2019-05-13T10:30:53.061Z,0.30
2019-05-13T10:31:51.919Z,0.20
2019-05-13T10:32:52.724Z,0.30
2019-05-13T10:33:51.858Z,0.20
2019-05-13T10:34:52.164Z,0.20
2019-05-13T10:35:52.590Z,0.20
2019-05-13T10:36:51.866Z,0.20
2019-05-13T10:37:52.424Z,0.30
2019-05-13T10:38:52.515Z,0.20
2019-05-13T10:39:51.936Z,0.40
2019-05-13T10:40:52.182Z,0.40
2019-05-13T10:41:52.477Z,0.30
2019-05-13T10:42:52.387Z,0.20
2019-05-13T10:43:52.056Z,0.20
2019-05-13T10:44:52.356Z,0.30
2019-05-13T10:45:52.603Z,0.20
2019-05-13T10:46:52.369Z,0.20
2019-05-13T10:47:52.041Z,0.20
2019-05-13T10:48:52.670Z,0.20
2019-05-13T10:49:52.300Z,0.30
2019-05-13T10:50:52.831Z,0.20
2019-05-13T10:51:52.661Z,0.20
2019-05-13T10:52:52.270Z,0.10
2019-05-13T10:53:53.002Z,0.30
2019-05-13T10:54:52.672Z,0.30
2019-05-13T10:55:52.342Z,0.30
2019-05-13T10:56:52.724Z,0.30
2019-05-13T10:58:02.598Z,0.20
2019-05-13T10:58:53.366Z,0.20
2019-05-13T10:59:52.820Z,0.20
2019-05-13T11:00:51.927Z,0.20
2019-05-13T11:01:51.550Z,0.20
2019-05-13T11:02:51.540Z,0.30
2019-05-13T11:03:52.412Z,0.20
2019-05-13T11:04:52.476Z,0.20
2019-05-13T11:05:52.532Z,0.10
2019-05-13T11:06:52.407Z,0.20
2019-05-13T11:07:51.844Z,0.20
2019-05-13T11:08:53.089Z,0.20
2019-05-13T11:09:52.769Z,0.30
2019-05-13T11:10:53.162Z,0.20
2019-05-13T11:11:52.759Z,0.20
2019-05-13T11:12:52.035Z,0.20
2019-05-13T11:13:58.780Z,0.20
2019-05-13T11:14:55.094Z,0.20
2019-05-13T11:15:57.471Z,0.10
2019-05-13T11:16:52.652Z,0.20
2019-05-13T11:17:51.918Z,0.20
2019-05-13T11:18:52.047Z,0.20
2019-05-13T11:19:51.362Z,0.20
2019-05-13T11:20:51.342Z,0.20
2019-05-13T11:21:51.345Z,0.20
2019-05-13T11:22:52.145Z,0.20
2019-05-13T11:23:51.781Z,0.20
2019-05-13T11:24:51.917Z,0.20
2019-05-13T11:25:52.259Z,0.30
2019-05-13T11:26:53.037Z,0.20
2019-05-13T11:27:52.399Z,0.20
2019-05-13T11:29:02.770Z,0.20
2019-05-13T11:29:52.359Z,0.10
2019-05-13T11:30:52.082Z,0.20
2019-05-13T11:31:52.335Z,0.20
2019-05-13T11:32:51.719Z,0.10
2019-05-13T11:33:52.033Z,0.10
2019-05-13T11:34:52.913Z,0.10
2019-05-13T11:35:52.360Z,0.10
2019-05-13T11:36:53.209Z,0.20
2019-05-13T11:37:52.201Z,0.20
2019-05-13T11:38:53.094Z,0.20
2019-05-13T11:39:51.669Z,0.10
2019-05-13T11:40:52.500Z,0.10
2019-05-13T11:41:51.119Z,0.20
2019-05-13T11:42:52.684Z,0.10
2019-05-13T11:44:11.054Z,0.10
2019-05-13T11:44:52.970Z,0.10
2019-05-13T11:45:51.773Z,0.30
2019-05-13T11:46:52.957Z,0.20
2019-05-13T11:47:52.186Z,0.20
2019-05-13T11:48:51.895Z,0.20
2019-05-13T11:49:52.265Z,0.20
2019-05-13T11:50:53.968Z,0.20
2019-05-13T11:51:51.935Z,0.10
2019-05-13T11:52:52.464Z,0.20
2019-05-13T11:53:52.464Z,0.20
2019-05-13T11:54:53.827Z,0.20
2019-05-13T11:55:52.255Z,0.10
2019-05-13T11:57:01.241Z,0.10
2019-05-13T11:57:53.085Z,0.20
2019-05-13T11:58:53.423Z,0.10
2019-05-13T12:00:02.622Z,0.20
2019-05-13T12:00:53.145Z,0.20
2019-05-13T12:01:53.844Z,0.20
2019-05-13T12:02:54.608Z,0.20
2019-05-13T12:03:53.029Z,0.10
2019-05-13T12:04:53.444Z,0.20
2019-05-13T12:05:53.855Z,0.10
2019-05-13T12:06:54.524Z,0.20
2019-05-13T12:07:53.520Z,0.20
2019-05-13T12:08:54.977Z,0.20
2019-05-13T12:09:51.864Z,0.20
2019-05-13T12:10:51.828Z,0.10
2019-05-13T12:11:50.831Z,0.20
2019-05-13T12:12:50.785Z,0.20
2019-05-13T12:13:52.840Z,0.20
2019-05-13T12:15:20.248Z,0.20
2019-05-13T12:15:54.334Z,0.20
2019-05-13T12:16:50.740Z,0.20
2019-05-13T12:17:52.917Z,0.10
2019-05-13T12:18:52.626Z,0.10
2019-05-13T12:19:54.009Z,0.10
2019-05-13T12:20:54.045Z,0.20
2019-05-13T12:21:54.135Z,0.10
2019-05-13T12:22:52.000Z,0.10
2019-05-13T12:23:52.749Z,0.20
2019-05-13T12:24:51.548Z,0.10
2019-05-13T12:25:53.012Z,0.10
2019-05-13T12:26:53.110Z,0.10
2019-05-13T12:27:51.956Z,0.20
2019-05-13T12:28:53.757Z,0.20
2019-05-13T12:29:52.846Z,0.10
2019-05-13T12:31:03.314Z,0.10
2019-05-13T12:31:52.619Z,0.20
2019-05-13T12:32:51.876Z,0.10
2019-05-13T12:33:52.336Z,0.20
2019-05-13T12:34:52.605Z,0.10
2019-05-13T12:35:53.045Z,0.10
2019-05-13T12:36:50.523Z,0.10
2019-05-13T12:37:53.301Z,0.10
2019-05-13T12:38:53.542Z,0.20
2019-05-13T12:39:53.154Z,0.10
2019-05-13T12:40:52.859Z,0.20
2019-05-13T12:41:53.471Z,0.20
2019-05-13T12:42:53.984Z,0.20
2019-05-13T12:43:53.945Z,0.20
2019-05-13T12:45:03.998Z,0.10
2019-05-13T12:45:53.379Z,0.10
2019-05-13T12:46:53.927Z,0.20
2019-05-13T12:47:53.007Z,0.10
2019-05-13T12:48:50.391Z,0.20
2019-05-13T12:49:50.385Z,0.20
2019-05-13T12:50:54.102Z,0.20
2019-05-13T12:51:51.650Z,0.20
2019-05-13T12:52:51.480Z,0.10
2019-05-13T12:53:52.818Z,0.10
2019-05-13T12:54:52.894Z,0.10
2019-05-13T12:55:53.845Z,0.10
2019-05-13T12:56:52.364Z,0.10
2019-05-13T12:57:52.044Z,0.10
2019-05-13T12:58:51.952Z,0.10
2019-05-13T12:59:50.270Z,0.10
2019-05-13T13:00:53.364Z,0.20
2019-05-13T13:02:03.243Z,0.20
2019-05-13T13:02:51.994Z,0.20
2019-05-13T13:03:50.234Z,0.10
2019-05-13T13:05:09.188Z,0.10
2019-05-13T13:05:51.218Z,0.20
2019-05-13T13:06:52.922Z,0.10
2019-05-13T13:08:13.817Z,0.20
2019-05-13T13:08:51.184Z,0.10
2019-05-13T13:09:53.510Z,0.10
2019-05-13T13:10:53.336Z,0.20
2019-05-13T13:11:53.944Z,0.10
2019-05-13T13:12:53.102Z,0.10
2019-05-13T13:13:58.645Z,0.20
2019-05-13T13:14:54.345Z,0.10
2019-05-13T13:15:52.651Z,0.20
2019-05-13T13:16:53.463Z,0.10
2019-05-13T13:17:53.915Z,0.20
2019-05-13T13:18:52.199Z,0.20
2019-05-13T13:19:53.806Z,0.10
2019-05-13T13:20:58.109Z,0.10